sensor_id;sensor_type;location;lat;lon;timestamp;P1;durP1;ratioP1;P2;durP2;ratioP2
17997;SDS011;9124;48.144;17.098;2022-12-07T00:00:20;6.43;;;5.82;;
17997;SDS011;9124;48.144;17.098;2022-12-07T00:03:58;6.05;;;5.55;;
17997;SDS011;9124;48.144;17.098;2022-12-07T00:07:40;6.35;;;5.75;;
17997;SDS011;9124;48.144;17.098;2022-12-07T00:11:18;6.18;;;5.55;;
17997;SDS011;9124;48.144;17.098;2022-12-07T00:14:55;6.63;;;6.03;;
17997;SDS011;9124;48.144;17.098;2022-12-07T00:18:32;6.72;;;5.95;;
17997;SDS011;9124;48.144;17.098;2022-12-07T00:22:09;5.65;;;5.05;;
17997;SDS011;9124;48.144;17.098;2022-12-07T00:25:45;8.88;;;5.90;;
17997;SDS011;9124;48.144;17.098;2022-12-07T00:29:23;6.47;;;5.75;;
17997;SDS011;9124;48.144;17.098;2022-12-07T00:33:00;7.13;;;6.40;;
17997;SDS011;9124;48.144;17.098;2022-12-07T00:36:36;8.88;;;5.90;;
17997;SDS011;9124;48.144;17.098;2022-12-07T00:40:13;7.35;;;6.65;;
17997;SDS011;9124;48.144;17.098;2022-12-07T00:43:49;7.50;;;6.80;;
17997;SDS011;9124;48.144;17.098;2022-12-07T00:47:26;6.65;;;6.05;;
17997;SDS011;9124;48.144;17.098;2022-12-07T00:51:02;6.38;;;5.78;;
17997;SDS011;9124;48.144;17.098;2022-12-07T00:54:40;8.30;;;6.28;;
17997;SDS011;9124;48.144;17.098;2022-12-07T00:58:16;5.90;;;5.40;;
17997;SDS011;9124;48.144;17.098;2022-12-07T01:01:52;5.70;;;5.20;;
17997;SDS011;9124;48.144;17.098;2022-12-07T01:05:29;8.85;;;5.45;;
17997;SDS011;9124;48.144;17.098;2022-12-07T01:09:05;7.78;;;5.50;;
17997;SDS011;9124;48.144;17.098;2022-12-07T01:12:42;6.07;;;5.05;;
17997;SDS011;9124;48.144;17.098;2022-12-07T01:16:18;6.70;;;5.85;;
17997;SDS011;9124;48.144;17.098;2022-12-07T01:19:56;7.97;;;5.72;;
17997;SDS011;9124;48.144;17.098;2022-12-07T01:23:34;7.55;;;5.70;;
17997;SDS011;9124;48.144;17.098;2022-12-07T01:27:11;7.30;;;5.78;;
17997;SDS011;9124;48.144;17.098;2022-12-07T01:31:03;5.97;;;5.40;;
17997;SDS011;9124;48.144;17.098;2022-12-07T01:35:00;9.45;;;6.45;;
17997;SDS011;9124;48.144;17.098;2022-12-07T01:38:37;8.45;;;5.38;;
17997;SDS011;9124;48.144;17.098;2022-12-07T01:42:13;5.85;;;5.32;;
17997;SDS011;9124;48.144;17.098;2022-12-07T01:45:50;6.95;;;5.72;;
17997;SDS011;9124;48.144;17.098;2022-12-07T01:53:11;7.20;;;6.43;;
17997;SDS011;9124;48.144;17.098;2022-12-07T01:56:50;8.88;;;6.90;;
17997;SDS011;9124;48.144;17.098;2022-12-07T02:00:30;8.40;;;6.63;;
17997;SDS011;9124;48.144;17.098;2022-12-07T02:04:07;9.90;;;8.15;;
17997;SDS011;9124;48.144;17.098;2022-12-07T02:07:44;8.48;;;7.65;;
17997;SDS011;9124;48.144;17.098;2022-12-07T02:11:23;9.27;;;8.43;;
17997;SDS011;9124;48.144;17.098;2022-12-07T02:14:59;13.35;;;8.90;;
17997;SDS011;9124;48.144;17.098;2022-12-07T02:18:52;11.40;;;8.43;;
17997;SDS011;9124;48.144;17.098;2022-12-07T02:23:00;10.80;;;8.60;;
17997;SDS011;9124;48.144;17.098;2022-12-07T02:30:52;10.68;;;8.95;;
17997;SDS011;9124;48.144;17.098;2022-12-07T02:34:47;10.23;;;8.25;;
17997;SDS011;9124;48.144;17.098;2022-12-07T02:38:44;11.23;;;9.10;;
17997;SDS011;9124;48.144;17.098;2022-12-07T02:42:23;10.23;;;8.60;;
17997;SDS011;9124;48.144;17.098;2022-12-07T02:46:16;8.93;;;8.18;;
17997;SDS011;9124;48.144;17.098;2022-12-07T02:50:02;11.05;;;9.77;;
17997;SDS011;9124;48.144;17.098;2022-12-07T02:53:42;11.10;;;9.40;;
17997;SDS011;9124;48.144;17.098;2022-12-07T02:57:27;14.23;;;9.68;;
17997;SDS011;9124;48.144;17.098;2022-12-07T03:01:36;11.35;;;9.82;;
17997;SDS011;9124;48.144;17.098;2022-12-07T03:05:32;13.85;;;9.52;;
17997;SDS011;9124;48.144;17.098;2022-12-07T03:09:37;11.65;;;9.80;;
17997;SDS011;9124;48.144;17.098;2022-12-07T03:17:22;13.80;;;9.82;;
17997;SDS011;9124;48.144;17.098;2022-12-07T03:21:10;11.80;;;9.55;;
17997;SDS011;9124;48.144;17.098;2022-12-07T03:24:50;12.38;;;9.55;;
17997;SDS011;9124;48.144;17.098;2022-12-07T03:28:34;14.32;;;10.50;;
17997;SDS011;9124;48.144;17.098;2022-12-07T03:32:15;15.20;;;11.13;;
17997;SDS011;9124;48.144;17.098;2022-12-07T03:36:08;12.90;;;11.30;;
17997;SDS011;9124;48.144;17.098;2022-12-07T03:44:03;18.33;;;12.20;;
17997;SDS011;9124;48.144;17.098;2022-12-07T03:52:08;18.67;;;12.20;;
17997;SDS011;9124;48.144;17.098;2022-12-07T03:55:47;12.50;;;11.10;;
17997;SDS011;9124;48.144;17.098;2022-12-07T03:59:26;14.25;;;11.48;;
17997;SDS011;9124;48.144;17.098;2022-12-07T04:03:04;13.98;;;11.45;;
17997;SDS011;9124;48.144;17.098;2022-12-07T04:06:41;15.10;;;11.88;;
17997;SDS011;9124;48.144;17.098;2022-12-07T04:10:17;14.75;;;11.02;;
17997;SDS011;9124;48.144;17.098;2022-12-07T04:13:54;14.65;;;11.30;;
17997;SDS011;9124;48.144;17.098;2022-12-07T04:17:49;13.63;;;11.40;;
17997;SDS011;9124;48.144;17.098;2022-12-07T04:21:26;17.17;;;11.73;;
17997;SDS011;9124;48.144;17.098;2022-12-07T04:25:03;18.02;;;11.90;;
17997;SDS011;9124;48.144;17.098;2022-12-07T04:28:40;17.38;;;11.98;;
17997;SDS011;9124;48.144;17.098;2022-12-07T04:32:17;13.60;;;11.02;;
17997;SDS011;9124;48.144;17.098;2022-12-07T04:35:53;18.63;;;11.63;;
17997;SDS011;9124;48.144;17.098;2022-12-07T04:39:30;12.73;;;10.77;;
17997;SDS011;9124;48.144;17.098;2022-12-07T04:43:08;14.45;;;10.82;;
17997;SDS011;9124;48.144;17.098;2022-12-07T04:46:45;13.57;;;11.25;;
17997;SDS011;9124;48.144;17.098;2022-12-07T04:50:22;17.25;;;10.80;;
17997;SDS011;9124;48.144;17.098;2022-12-07T04:53:59;16.52;;;12.05;;
17997;SDS011;9124;48.144;17.098;2022-12-07T04:57:35;16.25;;;11.70;;
17997;SDS011;9124;48.144;17.098;2022-12-07T05:01:12;17.15;;;12.55;;
17997;SDS011;9124;48.144;17.098;2022-12-07T05:04:50;12.40;;;11.10;;
17997;SDS011;9124;48.144;17.098;2022-12-07T05:08:26;13.25;;;10.38;;
17997;SDS011;9124;48.144;17.098;2022-12-07T05:12:03;15.13;;;11.70;;
17997;SDS011;9124;48.144;17.098;2022-12-07T05:15:40;19.30;;;11.43;;
17997;SDS011;9124;48.144;17.098;2022-12-07T05:19:20;18.88;;;11.77;;
17997;SDS011;9124;48.144;17.098;2022-12-07T05:22:57;15.07;;;12.05;;
17997;SDS011;9124;48.144;17.098;2022-12-07T05:26:34;18.00;;;11.35;;
17997;SDS011;9124;48.144;17.098;2022-12-07T05:30:10;15.95;;;12.43;;
17997;SDS011;9124;48.144;17.098;2022-12-07T05:33:48;14.43;;;11.25;;
17997;SDS011;9124;48.144;17.098;2022-12-07T05:37:24;18.02;;;11.90;;
17997;SDS011;9124;48.144;17.098;2022-12-07T05:41:02;15.88;;;12.10;;
17997;SDS011;9124;48.144;17.098;2022-12-07T05:44:40;14.68;;;10.77;;
17997;SDS011;9124;48.144;17.098;2022-12-07T05:48:19;15.20;;;11.32;;
17997;SDS011;9124;48.144;17.098;2022-12-07T05:51:55;12.73;;;10.57;;
17997;SDS011;9124;48.144;17.098;2022-12-07T05:55:31;18.05;;;12.10;;
17997;SDS011;9124;48.144;17.098;2022-12-07T05:59:08;14.77;;;10.65;;
17997;SDS011;9124;48.144;17.098;2022-12-07T06:03:01;13.10;;;10.05;;
17997;SDS011;9124;48.144;17.098;2022-12-07T06:06:38;14.57;;;10.70;;
17997;SDS011;9124;48.144;17.098;2022-12-07T06:10:14;15.65;;;10.40;;
17997;SDS011;9124;48.144;17.098;2022-12-07T06:13:51;13.52;;;9.52;;
17997;SDS011;9124;48.144;17.098;2022-12-07T06:17:27;15.70;;;10.05;;
17997;SDS011;9124;48.144;17.098;2022-12-07T06:21:04;12.30;;;10.20;;
17997;SDS011;9124;48.144;17.098;2022-12-07T06:24:40;10.80;;;8.98;;
17997;SDS011;9124;48.144;17.098;2022-12-07T06:28:18;11.70;;;8.82;;
17997;SDS011;9124;48.144;17.098;2022-12-07T06:31:54;14.40;;;8.98;;
17997;SDS011;9124;48.144;17.098;2022-12-07T06:35:32;9.85;;;9.00;;
17997;SDS011;9124;48.144;17.098;2022-12-07T06:39:09;11.48;;;9.07;;
17997;SDS011;9124;48.144;17.098;2022-12-07T06:42:46;10.65;;;8.65;;
17997;SDS011;9124;48.144;17.098;2022-12-07T06:46:23;13.23;;;9.50;;
17997;SDS011;9124;48.144;17.098;2022-12-07T06:50:00;14.48;;;8.57;;
17997;SDS011;9124;48.144;17.098;2022-12-07T06:53:36;11.13;;;9.25;;
17997;SDS011;9124;48.144;17.098;2022-12-07T06:57:13;11.05;;;9.55;;
17997;SDS011;9124;48.144;17.098;2022-12-07T07:00:49;10.90;;;8.75;;
17997;SDS011;9124;48.144;17.098;2022-12-07T07:04:26;12.55;;;8.80;;
17997;SDS011;9124;48.144;17.098;2022-12-07T07:08:02;10.82;;;7.28;;
17997;SDS011;9124;48.144;17.098;2022-12-07T07:11:39;9.60;;;7.93;;
17997;SDS011;9124;48.144;17.098;2022-12-07T07:15:15;11.57;;;8.07;;
17997;SDS011;9124;48.144;17.098;2022-12-07T07:18:52;9.02;;;7.50;;
17997;SDS011;9124;48.144;17.098;2022-12-07T07:22:28;9.38;;;8.32;;
17997;SDS011;9124;48.144;17.098;2022-12-07T07:26:04;9.77;;;8.55;;
17997;SDS011;9124;48.144;17.098;2022-12-07T07:29:40;9.07;;;8.20;;
17997;SDS011;9124;48.144;17.098;2022-12-07T07:33:17;11.88;;;8.75;;
17997;SDS011;9124;48.144;17.098;2022-12-07T07:36:53;11.38;;;8.23;;
17997;SDS011;9124;48.144;17.098;2022-12-07T07:40:29;12.77;;;8.25;;
17997;SDS011;9124;48.144;17.098;2022-12-07T07:44:05;9.95;;;7.53;;
17997;SDS011;9124;48.144;17.098;2022-12-07T07:47:42;10.25;;;7.75;;
17997;SDS011;9124;48.144;17.098;2022-12-07T07:51:18;13.65;;;8.32;;
17997;SDS011;9124;48.144;17.098;2022-12-07T07:54:54;8.52;;;7.43;;
17997;SDS011;9124;48.144;17.098;2022-12-07T07:58:30;8.77;;;7.93;;
17997;SDS011;9124;48.144;17.098;2022-12-07T08:02:09;11.38;;;9.30;;
17997;SDS011;9124;48.144;17.098;2022-12-07T08:05:50;13.75;;;8.85;;
17997;SDS011;9124;48.144;17.098;2022-12-07T08:09:27;8.95;;;7.50;;
17997;SDS011;9124;48.144;17.098;2022-12-07T08:13:03;11.15;;;8.63;;
17997;SDS011;9124;48.144;17.098;2022-12-07T08:16:51;12.40;;;7.85;;
17997;SDS011;9124;48.144;17.098;2022-12-07T08:20:29;13.10;;;8.98;;
17997;SDS011;9124;48.144;17.098;2022-12-07T08:24:08;10.95;;;8.80;;
17997;SDS011;9124;48.144;17.098;2022-12-07T08:27:45;9.98;;;8.52;;
17997;SDS011;9124;48.144;17.098;2022-12-07T08:31:21;10.48;;;8.20;;
17997;SDS011;9124;48.144;17.098;2022-12-07T08:34:58;10.55;;;8.68;;
17997;SDS011;9124;48.144;17.098;2022-12-07T08:38:35;10.05;;;8.20;;
17997;SDS011;9124;48.144;17.098;2022-12-07T08:42:12;9.80;;;7.63;;
17997;SDS011;9124;48.144;17.098;2022-12-07T08:45:49;11.82;;;8.43;;
17997;SDS011;9124;48.144;17.098;2022-12-07T08:49:40;15.05;;;8.98;;
17997;SDS011;9124;48.144;17.098;2022-12-07T08:53:20;8.73;;;7.88;;
17997;SDS011;9124;48.144;17.098;2022-12-07T08:56:58;11.00;;;9.02;;
17997;SDS011;9124;48.144;17.098;2022-12-07T09:00:34;10.75;;;9.30;;
17997;SDS011;9124;48.144;17.098;2022-12-07T09:04:10;15.02;;;8.82;;
17997;SDS011;9124;48.144;17.098;2022-12-07T09:07:48;9.02;;;8.07;;
17997;SDS011;9124;48.144;17.098;2022-12-07T09:11:28;11.82;;;8.25;;
17997;SDS011;9124;48.144;17.098;2022-12-07T09:15:05;9.07;;;8.10;;
17997;SDS011;9124;48.144;17.098;2022-12-07T09:18:42;7.25;;;6.53;;
17997;SDS011;9124;48.144;17.098;2022-12-07T09:22:18;8.38;;;7.30;;
17997;SDS011;9124;48.144;17.098;2022-12-07T09:25:58;7.85;;;6.95;;
17997;SDS011;9124;48.144;17.098;2022-12-07T09:29:36;9.13;;;7.10;;
17997;SDS011;9124;48.144;17.098;2022-12-07T09:33:13;7.40;;;6.63;;
17997;SDS011;9124;48.144;17.098;2022-12-07T09:36:49;7.05;;;6.38;;
17997;SDS011;9124;48.144;17.098;2022-12-07T09:40:26;6.13;;;5.53;;
17997;SDS011;9124;48.144;17.098;2022-12-07T09:44:05;10.77;;;7.43;;
17997;SDS011;9124;48.144;17.098;2022-12-07T09:47:56;7.93;;;7.13;;
17997;SDS011;9124;48.144;17.098;2022-12-07T09:51:35;9.18;;;6.60;;
17997;SDS011;9124;48.144;17.098;2022-12-07T09:55:12;6.32;;;5.72;;
17997;SDS011;9124;48.144;17.098;2022-12-07T09:58:53;6.68;;;5.97;;
17997;SDS011;9124;48.144;17.098;2022-12-07T10:02:43;5.50;;;4.90;;
17997;SDS011;9124;48.144;17.098;2022-12-07T10:06:22;6.10;;;5.15;;
17997;SDS011;9124;48.144;17.098;2022-12-07T10:09:59;8.35;;;4.88;;
17997;SDS011;9124;48.144;17.098;2022-12-07T10:13:45;6.13;;;4.80;;
17997;SDS011;9124;48.144;17.098;2022-12-07T10:17:41;6.82;;;4.18;;
17997;SDS011;9124;48.144;17.098;2022-12-07T10:21:27;3.58;;;3.28;;
17997;SDS011;9124;48.144;17.098;2022-12-07T10:25:08;2.70;;;2.50;;
17997;SDS011;9124;48.144;17.098;2022-12-07T10:28:54;2.85;;;2.63;;
17997;SDS011;9124;48.144;17.098;2022-12-07T10:32:34;2.40;;;2.20;;
17997;SDS011;9124;48.144;17.098;2022-12-07T10:36:19;2.25;;;2.15;;
17997;SDS011;9124;48.144;17.098;2022-12-07T10:44:10;2.00;;;1.90;;
17997;SDS011;9124;48.144;17.098;2022-12-07T11:00:07;3.10;;;1.85;;
17997;SDS011;9124;48.144;17.098;2022-12-07T11:39:36;2.67;;;2.47;;
17997;SDS011;9124;48.144;17.098;2022-12-07T11:43:26;3.03;;;2.78;;
17997;SDS011;9124;48.144;17.098;2022-12-07T11:47:09;4.15;;;2.72;;
17997;SDS011;9124;48.144;17.098;2022-12-07T11:51:04;2.47;;;2.28;;
17997;SDS011;9124;48.144;17.098;2022-12-07T11:54:46;2.67;;;2.47;;
17997;SDS011;9124;48.144;17.098;2022-12-07T12:02:25;2.78;;;2.58;;
17997;SDS011;9124;48.144;17.098;2022-12-07T12:06:07;3.42;;;2.60;;
17997;SDS011;9124;48.144;17.098;2022-12-07T12:10:18;3.85;;;2.53;;
17997;SDS011;9124;48.144;17.098;2022-12-07T12:14:09;2.72;;;2.50;;
17997;SDS011;9124;48.144;17.098;2022-12-07T12:21:47;2.35;;;2.15;;
17997;SDS011;9124;48.144;17.098;2022-12-07T12:25:51;2.60;;;2.40;;
17997;SDS011;9124;48.144;17.098;2022-12-07T12:29:39;2.55;;;2.35;;
17997;SDS011;9124;48.144;17.098;2022-12-07T12:33:25;2.63;;;2.42;;
17997;SDS011;9124;48.144;17.098;2022-12-07T12:41:09;3.53;;;2.78;;
17997;SDS011;9124;48.144;17.098;2022-12-07T12:45:28;2.70;;;2.50;;
17997;SDS011;9124;48.144;17.098;2022-12-07T12:49:14;3.20;;;2.90;;
17997;SDS011;9124;48.144;17.098;2022-12-07T12:53:14;2.92;;;2.67;;
17997;SDS011;9124;48.144;17.098;2022-12-07T12:57:14;3.92;;;3.03;;
17997;SDS011;9124;48.144;17.098;2022-12-07T13:05:22;3.17;;;2.97;;
17997;SDS011;9124;48.144;17.098;2022-12-07T13:09:02;2.63;;;2.42;;
17997;SDS011;9124;48.144;17.098;2022-12-07T13:12:39;2.28;;;2.13;;
17997;SDS011;9124;48.144;17.098;2022-12-07T13:19:56;3.28;;;2.58;;
17997;SDS011;9124;48.144;17.098;2022-12-07T13:27:20;2.83;;;2.63;;
17997;SDS011;9124;48.144;17.098;2022-12-07T13:34:35;2.80;;;2.60;;
17997;SDS011;9124;48.144;17.098;2022-12-07T13:38:30;4.35;;;2.67;;
17997;SDS011;9124;48.144;17.098;2022-12-07T13:42:14;3.83;;;3.22;;
17997;SDS011;9124;48.144;17.098;2022-12-07T13:46:03;3.50;;;2.78;;
17997;SDS011;9124;48.144;17.098;2022-12-07T13:49:49;3.33;;;3.03;;
17997;SDS011;9124;48.144;17.098;2022-12-07T13:53:30;3.20;;;2.72;;
17997;SDS011;9124;48.144;17.098;2022-12-07T13:57:07;2.60;;;2.38;;
17997;SDS011;9124;48.144;17.098;2022-12-07T14:00:44;5.65;;;2.67;;
17997;SDS011;9124;48.144;17.098;2022-12-07T14:11:50;2.47;;;2.28;;
17997;SDS011;9124;48.144;17.098;2022-12-07T14:15:32;3.40;;;2.85;;
17997;SDS011;9124;48.144;17.098;2022-12-07T14:23:30;2.80;;;2.60;;
17997;SDS011;9124;48.144;17.098;2022-12-07T14:27:15;2.45;;;2.30;;
17997;SDS011;9124;48.144;17.098;2022-12-07T14:30:55;2.58;;;2.38;;
17997;SDS011;9124;48.144;17.098;2022-12-07T14:34:31;2.65;;;2.47;;
17997;SDS011;9124;48.144;17.098;2022-12-07T14:38:07;3.58;;;2.53;;
17997;SDS011;9124;48.144;17.098;2022-12-07T14:41:44;2.67;;;2.47;;
17997;SDS011;9124;48.144;17.098;2022-12-07T14:45:27;2.30;;;2.20;;
17997;SDS011;9124;48.144;17.098;2022-12-07T14:49:04;2.83;;;2.50;;
17997;SDS011;9124;48.144;17.098;2022-12-07T14:52:41;2.67;;;2.47;;
17997;SDS011;9124;48.144;17.098;2022-12-07T14:56:20;2.90;;;2.70;;
17997;SDS011;9124;48.144;17.098;2022-12-07T14:59:56;3.17;;;2.88;;
17997;SDS011;9124;48.144;17.098;2022-12-07T15:03:33;2.83;;;2.63;;
17997;SDS011;9124;48.144;17.098;2022-12-07T15:07:20;3.97;;;3.38;;
17997;SDS011;9124;48.144;17.098;2022-12-07T15:10:57;3.00;;;2.80;;
17997;SDS011;9124;48.144;17.098;2022-12-07T15:14:33;3.38;;;3.08;;
17997;SDS011;9124;48.144;17.098;2022-12-07T15:18:09;4.00;;;3.70;;
17997;SDS011;9124;48.144;17.098;2022-12-07T15:21:45;3.50;;;3.20;;
17997;SDS011;9124;48.144;17.098;2022-12-07T15:25:22;3.70;;;3.40;;
17997;SDS011;9124;48.144;17.098;2022-12-07T15:28:58;3.47;;;3.17;;
17997;SDS011;9124;48.144;17.098;2022-12-07T15:32:35;3.70;;;3.33;;
17997;SDS011;9124;48.144;17.098;2022-12-07T15:36:17;4.57;;;3.28;;
17997;SDS011;9124;48.144;17.098;2022-12-07T15:39:57;4.03;;;3.60;;
17997;SDS011;9124;48.144;17.098;2022-12-07T15:43:33;5.00;;;4.25;;
17997;SDS011;9124;48.144;17.098;2022-12-07T15:47:28;6.72;;;4.28;;
17997;SDS011;9124;48.144;17.098;2022-12-07T15:51:10;4.90;;;4.40;;
17997;SDS011;9124;48.144;17.098;2022-12-07T15:54:46;4.53;;;4.15;;
17997;SDS011;9124;48.144;17.098;2022-12-07T15:58:23;5.30;;;4.03;;
17997;SDS011;9124;48.144;17.098;2022-12-07T16:01:59;4.82;;;4.43;;
17997;SDS011;9124;48.144;17.098;2022-12-07T16:05:36;4.63;;;4.07;;
17997;SDS011;9124;48.144;17.098;2022-12-07T16:09:12;5.15;;;4.65;;
17997;SDS011;9124;48.144;17.098;2022-12-07T16:12:48;4.53;;;4.13;;
17997;SDS011;9124;48.144;17.098;2022-12-07T16:16:25;5.35;;;4.40;;
17997;SDS011;9124;48.144;17.098;2022-12-07T16:20:02;4.53;;;4.13;;
17997;SDS011;9124;48.144;17.098;2022-12-07T16:23:39;5.85;;;4.38;;
17997;SDS011;9124;48.144;17.098;2022-12-07T16:27:16;4.55;;;4.15;;
17997;SDS011;9124;48.144;17.098;2022-12-07T16:30:59;4.38;;;3.97;;
17997;SDS011;9124;48.144;17.098;2022-12-07T16:34:42;5.38;;;4.35;;
17997;SDS011;9124;48.144;17.098;2022-12-07T16:38:19;5.03;;;4.13;;
17997;SDS011;9124;48.144;17.098;2022-12-07T16:41:55;5.63;;;4.50;;
17997;SDS011;9124;48.144;17.098;2022-12-07T16:45:31;4.90;;;4.43;;
17997;SDS011;9124;48.144;17.098;2022-12-07T16:49:11;5.78;;;4.32;;
17997;SDS011;9124;48.144;17.098;2022-12-07T16:52:49;6.07;;;4.40;;
17997;SDS011;9124;48.144;17.098;2022-12-07T16:56:25;5.18;;;4.72;;
17997;SDS011;9124;48.144;17.098;2022-12-07T17:00:02;7.63;;;4.60;;
17997;SDS011;9124;48.144;17.098;2022-12-07T17:03:40;4.70;;;4.30;;
17997;SDS011;9124;48.144;17.098;2022-12-07T17:07:16;5.22;;;4.43;;
17997;SDS011;9124;48.144;17.098;2022-12-07T17:10:52;5.57;;;4.85;;
17997;SDS011;9124;48.144;17.098;2022-12-07T17:14:29;4.63;;;4.32;;
17997;SDS011;9124;48.144;17.098;2022-12-07T17:18:25;5.07;;;4.68;;
17997;SDS011;9124;48.144;17.098;2022-12-07T17:22:06;5.97;;;4.47;;
17997;SDS011;9124;48.144;17.098;2022-12-07T17:25:43;5.20;;;4.70;;
17997;SDS011;9124;48.144;17.098;2022-12-07T17:29:19;5.35;;;4.88;;
17997;SDS011;9124;48.144;17.098;2022-12-07T17:32:56;6.00;;;5.40;;
17997;SDS011;9124;48.144;17.098;2022-12-07T17:36:32;5.90;;;5.40;;
17997;SDS011;9124;48.144;17.098;2022-12-07T17:40:09;7.35;;;4.95;;
17997;SDS011;9124;48.144;17.098;2022-12-07T17:43:46;5.40;;;4.90;;
17997;SDS011;9124;48.144;17.098;2022-12-07T17:47:22;5.68;;;4.95;;
17997;SDS011;9124;48.144;17.098;2022-12-07T17:50:59;6.03;;;5.53;;
17997;SDS011;9124;48.144;17.098;2022-12-07T17:54:54;7.32;;;5.22;;
17997;SDS011;9124;48.144;17.098;2022-12-07T17:58:31;5.63;;;4.72;;
17997;SDS011;9124;48.144;17.098;2022-12-07T18:02:08;6.13;;;5.40;;
17997;SDS011;9124;48.144;17.098;2022-12-07T18:05:45;6.07;;;5.47;;
17997;SDS011;9124;48.144;17.098;2022-12-07T18:09:23;5.63;;;5.13;;
17997;SDS011;9124;48.144;17.098;2022-12-07T18:13:00;5.85;;;4.75;;
17997;SDS011;9124;48.144;17.098;2022-12-07T18:16:54;5.95;;;4.88;;
17997;SDS011;9124;48.144;17.098;2022-12-07T18:20:31;5.68;;;5.18;;
17997;SDS011;9124;48.144;17.098;2022-12-07T18:24:11;5.28;;;4.85;;
17997;SDS011;9124;48.144;17.098;2022-12-07T18:27:49;5.93;;;5.20;;
17997;SDS011;9124;48.144;17.098;2022-12-07T18:31:26;6.18;;;5.13;;
17997;SDS011;9124;48.144;17.098;2022-12-07T18:35:03;5.32;;;4.82;;
17997;SDS011;9124;48.144;17.098;2022-12-07T18:38:40;6.13;;;5.55;;
17997;SDS011;9124;48.144;17.098;2022-12-07T18:42:17;5.32;;;4.50;;
17997;SDS011;9124;48.144;17.098;2022-12-07T18:45:53;10.85;;;5.18;;
17997;SDS011;9124;48.144;17.098;2022-12-07T18:49:30;8.05;;;7.30;;
17997;SDS011;9124;48.144;17.098;2022-12-07T18:53:06;7.07;;;6.07;;
17997;SDS011;9124;48.144;17.098;2022-12-07T18:56:45;6.00;;;5.38;;
17997;SDS011;9124;48.144;17.098;2022-12-07T19:00:21;6.50;;;5.15;;
17997;SDS011;9124;48.144;17.098;2022-12-07T19:03:59;6.97;;;5.07;;
17997;SDS011;9124;48.144;17.098;2022-12-07T19:07:35;6.20;;;5.60;;
17997;SDS011;9124;48.144;17.098;2022-12-07T19:11:21;6.25;;;5.68;;
17997;SDS011;9124;48.144;17.098;2022-12-07T19:15:18;7.10;;;5.88;;
17997;SDS011;9124;48.144;17.098;2022-12-07T19:18:54;6.28;;;4.82;;
17997;SDS011;9124;48.144;17.098;2022-12-07T19:22:31;7.47;;;5.35;;
17997;SDS011;9124;48.144;17.098;2022-12-07T19:26:07;7.47;;;6.30;;
17997;SDS011;9124;48.144;17.098;2022-12-07T19:29:44;7.38;;;6.32;;
17997;SDS011;9124;48.144;17.098;2022-12-07T19:33:22;7.32;;;5.32;;
17997;SDS011;9124;48.144;17.098;2022-12-07T19:36:58;7.57;;;5.30;;
17997;SDS011;9124;48.144;17.098;2022-12-07T19:40:35;8.00;;;5.63;;
17997;SDS011;9124;48.144;17.098;2022-12-07T19:44:16;5.95;;;5.32;;
17997;SDS011;9124;48.144;17.098;2022-12-07T19:48:00;6.63;;;5.95;;
17997;SDS011;9124;48.144;17.098;2022-12-07T19:51:36;7.10;;;5.82;;
17997;SDS011;9124;48.144;17.098;2022-12-07T19:55:13;6.22;;;5.65;;
17997;SDS011;9124;48.144;17.098;2022-12-07T19:58:49;8.95;;;6.10;;
17997;SDS011;9124;48.144;17.098;2022-12-07T20:02:26;6.18;;;5.57;;
17997;SDS011;9124;48.144;17.098;2022-12-07T20:06:06;6.65;;;5.50;;
17997;SDS011;9124;48.144;17.098;2022-12-07T20:09:48;7.40;;;5.78;;
17997;SDS011;9124;48.144;17.098;2022-12-07T20:13:24;6.47;;;5.80;;
17997;SDS011;9124;48.144;17.098;2022-12-07T20:17:03;8.70;;;6.45;;
17997;SDS011;9124;48.144;17.098;2022-12-07T20:20:40;9.13;;;5.95;;
17997;SDS011;9124;48.144;17.098;2022-12-07T20:24:19;7.43;;;5.85;;
17997;SDS011;9124;48.144;17.098;2022-12-07T20:27:57;9.77;;;6.32;;
17997;SDS011;9124;48.144;17.098;2022-12-07T20:31:34;10.18;;;5.70;;
17997;SDS011;9124;48.144;17.098;2022-12-07T20:35:11;6.75;;;6.13;;
17997;SDS011;9124;48.144;17.098;2022-12-07T20:38:47;7.35;;;5.10;;
17997;SDS011;9124;48.144;17.098;2022-12-07T20:42:24;5.65;;;5.05;;
17997;SDS011;9124;48.144;17.098;2022-12-07T20:46:12;6.22;;;5.63;;
17997;SDS011;9124;48.144;17.098;2022-12-07T20:49:48;6.80;;;6.10;;
17997;SDS011;9124;48.144;17.098;2022-12-07T20:53:26;6.40;;;5.60;;
17997;SDS011;9124;48.144;17.098;2022-12-07T20:57:02;9.80;;;6.35;;
17997;SDS011;9124;48.144;17.098;2022-12-07T21:00:39;5.68;;;5.15;;
17997;SDS011;9124;48.144;17.098;2022-12-07T21:04:15;6.00;;;5.32;;
17997;SDS011;9124;48.144;17.098;2022-12-07T21:07:53;9.13;;;6.45;;
17997;SDS011;9124;48.144;17.098;2022-12-07T21:11:29;6.07;;;5.57;;
17997;SDS011;9124;48.144;17.098;2022-12-07T21:15:07;7.28;;;6.43;;
17997;SDS011;9124;48.144;17.098;2022-12-07T21:18:44;7.03;;;6.20;;
17997;SDS011;9124;48.144;17.098;2022-12-07T21:22:22;9.80;;;6.25;;
17997;SDS011;9124;48.144;17.098;2022-12-07T21:25:59;13.13;;;6.47;;
17997;SDS011;9124;48.144;17.098;2022-12-07T21:29:35;8.30;;;6.78;;
17997;SDS011;9124;48.144;17.098;2022-12-07T21:33:12;7.53;;;6.70;;
17997;SDS011;9124;48.144;17.098;2022-12-07T21:36:48;9.75;;;6.38;;
17997;SDS011;9124;48.144;17.098;2022-12-07T21:40:25;6.32;;;5.57;;
17997;SDS011;9124;48.144;17.098;2022-12-07T21:44:03;7.85;;;6.00;;
17997;SDS011;9124;48.144;17.098;2022-12-07T21:47:42;6.68;;;5.47;;
17997;SDS011;9124;48.144;17.098;2022-12-07T21:51:18;6.72;;;5.53;;
17997;SDS011;9124;48.144;17.098;2022-12-07T21:54:57;7.22;;;6.53;;
17997;SDS011;9124;48.144;17.098;2022-12-07T21:58:33;8.68;;;6.40;;
17997;SDS011;9124;48.144;17.098;2022-12-07T22:02:12;7.22;;;6.47;;
17997;SDS011;9124;48.144;17.098;2022-12-07T22:05:49;8.10;;;7.00;;
17997;SDS011;9124;48.144;17.098;2022-12-07T22:09:26;10.55;;;7.57;;
17997;SDS011;9124;48.144;17.098;2022-12-07T22:13:04;12.77;;;5.78;;
17997;SDS011;9124;48.144;17.098;2022-12-07T22:16:41;9.50;;;5.85;;
17997;SDS011;9124;48.144;17.098;2022-12-07T22:20:18;6.78;;;6.13;;
17997;SDS011;9124;48.144;17.098;2022-12-07T22:23:56;5.35;;;4.85;;
17997;SDS011;9124;48.144;17.098;2022-12-07T22:27:33;11.50;;;5.97;;
17997;SDS011;9124;48.144;17.098;2022-12-07T22:31:10;6.47;;;5.07;;
17997;SDS011;9124;48.144;17.098;2022-12-07T22:34:48;5.57;;;5.05;;
17997;SDS011;9124;48.144;17.098;2022-12-07T22:38:24;5.55;;;4.97;;
17997;SDS011;9124;48.144;17.098;2022-12-07T22:42:01;6.95;;;5.53;;
17997;SDS011;9124;48.144;17.098;2022-12-07T22:45:37;6.68;;;5.40;;
17997;SDS011;9124;48.144;17.098;2022-12-07T22:49:14;5.80;;;5.30;;
17997;SDS011;9124;48.144;17.098;2022-12-07T22:52:52;8.50;;;5.40;;
17997;SDS011;9124;48.144;17.098;2022-12-07T22:56:31;5.57;;;5.07;;
17997;SDS011;9124;48.144;17.098;2022-12-07T23:00:10;7.60;;;5.32;;
17997;SDS011;9124;48.144;17.098;2022-12-07T23:04:07;6.22;;;5.60;;
17997;SDS011;9124;48.144;17.098;2022-12-07T23:07:43;8.30;;;6.05;;
17997;SDS011;9124;48.144;17.098;2022-12-07T23:11:21;6.30;;;5.72;;
17997;SDS011;9124;48.144;17.098;2022-12-07T23:15:19;6.78;;;6.13;;
17997;SDS011;9124;48.144;17.098;2022-12-07T23:18:55;7.82;;;6.20;;
17997;SDS011;9124;48.144;17.098;2022-12-07T23:22:32;9.43;;;7.10;;
17997;SDS011;9124;48.144;17.098;2022-12-07T23:26:09;7.88;;;6.63;;
17997;SDS011;9124;48.144;17.098;2022-12-07T23:29:46;9.82;;;7.45;;
17997;SDS011;9124;48.144;17.098;2022-12-07T23:33:23;7.20;;;6.50;;
17997;SDS011;9124;48.144;17.098;2022-12-07T23:36:59;7.45;;;6.65;;
17997;SDS011;9124;48.144;17.098;2022-12-07T23:40:36;8.95;;;6.22;;
17997;SDS011;9124;48.144;17.098;2022-12-07T23:44:12;7.20;;;6.28;;
17997;SDS011;9124;48.144;17.098;2022-12-07T23:47:49;7.85;;;5.85;;